createdAt,value
2022-08-18T00:00:53.987Z,9.747486
2022-08-18T00:01:54.003Z,9.747403
2022-08-18T00:03:00.863Z,9.747458
2022-08-18T00:03:59.482Z,9.747485
2022-08-18T00:04:55.368Z,9.747437
2022-08-18T00:05:53.924Z,9.747474
2022-08-18T00:06:53.939Z,9.747402
2022-08-18T00:07:53.902Z,9.747405
2022-08-18T00:08:53.894Z,9.747396
2022-08-18T00:09:53.883Z,9.747453
2022-08-18T00:10:53.875Z,9.747516
2022-08-18T00:11:53.896Z,9.747542
2022-08-18T00:12:57.032Z,9.747468
2022-08-18T00:13:53.857Z,9.747458
2022-08-18T00:14:53.851Z,9.747562
2022-08-18T00:15:53.869Z,9.747393
2022-08-18T00:16:53.930Z,9.747441
2022-08-18T00:17:53.856Z,9.747484
2022-08-18T00:18:53.824Z,9.747399
2022-08-18T00:19:53.817Z,9.747272
2022-08-18T00:20:53.834Z,9.747259
2022-08-18T00:21:53.798Z,9.747452
2022-08-18T00:22:53.791Z,9.747512
2022-08-18T00:23:53.780Z,9.747467
2022-08-18T00:24:53.777Z,9.747459
2022-08-18T00:25:53.793Z,9.747478
2022-08-18T00:26:53.761Z,9.747530
2022-08-18T00:27:53.750Z,9.747518
2022-08-18T00:28:53.745Z,9.747458
2022-08-18T00:29:53.751Z,9.747552
2022-08-18T00:30:54.259Z,9.747477
2022-08-18T00:31:53.734Z,9.747341
2022-08-18T00:32:53.732Z,9.747540
2022-08-18T00:33:53.701Z,9.747551
2022-08-18T00:34:53.703Z,9.747578
2022-08-18T00:35:53.730Z,9.747483
2022-08-18T00:36:53.684Z,9.747597
2022-08-18T00:37:53.763Z,9.747552
2022-08-18T00:38:53.673Z,9.747502
2022-08-18T00:39:53.872Z,9.747635
2022-08-18T00:40:53.678Z,9.747798
2022-08-18T00:41:53.652Z,9.747627
2022-08-18T00:42:53.672Z,9.747570
2022-08-18T00:43:53.629Z,9.747666
2022-08-18T00:44:53.657Z,9.747727
2022-08-18T00:45:53.644Z,9.747692
2022-08-18T00:46:53.601Z,9.747614
2022-08-18T00:47:53.937Z,9.747702
2022-08-18T00:48:53.591Z,9.747685
2022-08-18T00:49:53.587Z,9.747514
2022-08-18T00:50:53.601Z,9.747684
2022-08-18T00:51:53.572Z,9.747550
2022-08-18T00:52:53.568Z,9.747581
2022-08-18T00:53:53.559Z,9.747728
2022-08-18T00:54:53.546Z,9.747643
2022-08-18T00:55:54.459Z,9.747584
2022-08-18T00:56:53.532Z,9.747342
2022-08-18T00:57:53.683Z,9.747399
2022-08-18T00:58:53.518Z,9.747456
2022-08-18T00:59:53.517Z,9.747653
2022-08-18T01:00:53.575Z,9.747661
2022-08-18T01:01:53.488Z,9.747670
2022-08-18T01:02:53.486Z,9.747622
2022-08-18T01:03:53.485Z,9.747743
2022-08-18T01:04:53.464Z,9.747635
2022-08-18T01:05:53.491Z,9.747648
2022-08-18T01:06:53.451Z,9.747594
2022-08-18T01:07:53.688Z,9.747509
2022-08-18T01:08:53.434Z,9.747428
2022-08-18T01:09:53.427Z,9.747365
2022-08-18T01:10:53.450Z,9.747458
2022-08-18T01:11:53.410Z,9.747602
2022-08-18T01:12:53.404Z,9.747464
2022-08-18T01:13:53.398Z,9.747461
2022-08-18T01:14:53.392Z,9.747517
2022-08-18T01:15:53.378Z,9.747379
2022-08-18T01:16:56.744Z,9.747396
2022-08-18T01:17:53.562Z,9.747442
2022-08-18T01:18:53.357Z,9.747465
2022-08-18T01:19:53.350Z,9.747559
2022-08-18T01:20:53.339Z,9.747538
2022-08-18T01:21:53.358Z,9.747388
2022-08-18T01:22:53.321Z,9.747542
2022-08-18T01:23:53.312Z,9.747536
2022-08-18T01:24:53.306Z,9.747278
2022-08-18T01:25:53.301Z,9.747358
2022-08-18T01:26:53.318Z,9.747521
2022-08-18T01:27:53.361Z,9.747625
2022-08-18T01:28:53.283Z,9.747530
2022-08-18T01:29:53.266Z,9.747382
2022-08-18T01:30:53.256Z,9.747443
2022-08-18T01:31:54.886Z,9.747321
2022-08-18T01:32:53.245Z,9.747510
2022-08-18T01:33:53.237Z,9.747526
2022-08-18T01:34:53.233Z,9.747501
2022-08-18T01:35:53.222Z,9.747466
2022-08-18T01:36:53.239Z,9.747403
2022-08-18T01:37:53.321Z,9.747436
2022-08-18T01:38:53.204Z,9.747459
2022-08-18T01:41:20.957Z,9.747375
2022-08-18T01:41:22.317Z,9.747422
2022-08-18T01:41:54.225Z,9.747322
2022-08-18T01:42:53.171Z,9.747356
2022-08-18T01:43:53.168Z,9.747471
2022-08-18T01:45:26.283Z,9.747393
2022-08-18T01:45:53.144Z,9.747318
2022-08-18T01:46:53.171Z,9.747450
2022-08-18T01:47:53.134Z,9.747353
2022-08-18T01:48:53.120Z,9.747393
2022-08-18T01:49:53.115Z,9.747307
2022-08-18T01:50:53.106Z,9.747431
2022-08-18T01:51:53.140Z,9.747525
2022-08-18T01:52:53.087Z,9.747484
2022-08-18T01:53:53.112Z,9.747467
2022-08-18T01:54:53.085Z,9.747379
2022-08-18T01:55:53.087Z,9.747303
2022-08-18T01:56:53.090Z,9.747274
2022-08-18T01:57:53.165Z,9.747342
2022-08-18T01:58:53.520Z,9.747453
2022-08-18T01:59:53.033Z,9.747262
2022-08-18T02:00:53.031Z,9.747488
2022-08-18T02:01:53.649Z,9.747279
2022-08-18T02:02:58.214Z,9.747267
2022-08-18T02:04:02.553Z,9.747280
2022-08-18T02:04:54.002Z,9.747417
2022-08-18T02:05:53.035Z,9.747294
2022-08-18T02:06:53.005Z,9.747248
2022-08-18T02:07:54.034Z,9.747185
2022-08-18T02:08:53.799Z,9.747189
2022-08-18T02:09:52.986Z,9.747170
2022-08-18T02:10:52.984Z,9.747267
2022-08-18T02:11:53.604Z,9.747474
2022-08-18T02:12:52.945Z,9.747322
2022-08-18T02:13:53.029Z,9.747210
2022-08-18T02:14:52.930Z,9.747457
2022-08-18T02:15:52.945Z,9.747231
2022-08-18T02:16:52.956Z,9.747100
2022-08-18T02:17:53.135Z,9.747167
2022-08-18T02:18:52.898Z,9.747213
2022-08-18T02:19:52.889Z,9.747227
2022-08-18T02:20:52.892Z,9.747366
2022-08-18T02:21:52.959Z,9.747367
2022-08-18T02:22:52.911Z,9.747470
2022-08-18T02:23:53.379Z,9.747416
2022-08-18T02:24:52.862Z,9.747138
2022-08-18T02:25:52.869Z,9.747293
2022-08-18T02:26:52.863Z,9.747064
2022-08-18T02:27:53.049Z,9.746919
2022-08-18T02:28:52.825Z,9.747390
2022-08-18T02:29:52.809Z,9.747799
2022-08-18T02:30:52.805Z,9.747368
2022-08-18T02:31:52.795Z,9.747366
2022-08-18T02:32:52.838Z,9.747335
2022-08-18T02:33:52.878Z,9.747234
2022-08-18T02:34:53.770Z,9.747304
2022-08-18T02:35:52.790Z,9.747212
2022-08-18T02:36:52.751Z,9.747310
2022-08-18T02:37:54.664Z,9.747356
2022-08-18T02:38:54.853Z,9.747419
2022-08-18T02:39:53.779Z,9.747431
2022-08-18T02:40:52.721Z,9.747338
2022-08-18T02:41:52.719Z,9.747300
2022-08-18T02:42:52.783Z,9.747303
2022-08-18T02:43:52.698Z,9.747379
2022-08-18T02:44:52.692Z,9.747398
2022-08-18T02:45:52.685Z,9.747440
2022-08-18T02:46:52.675Z,9.747454
2022-08-18T02:47:52.833Z,9.747415
2022-08-18T02:48:52.660Z,9.747374
2022-08-18T02:49:52.648Z,9.747291
2022-08-18T02:50:52.649Z,9.747240
2022-08-18T02:51:52.638Z,9.747434
2022-08-18T02:52:52.676Z,9.747366
2022-08-18T02:53:52.620Z,9.747466
2022-08-18T02:54:52.640Z,9.747418
2022-08-18T02:55:52.609Z,9.747342
2022-08-18T02:56:52.605Z,9.747295
2022-08-18T02:57:52.821Z,9.747298
2022-08-18T02:58:52.590Z,9.747258
2022-08-18T02:59:52.583Z,9.747444
2022-08-18T03:00:52.567Z,9.747434
2022-08-18T03:01:52.674Z,9.747482
2022-08-18T03:02:52.591Z,9.747336
2022-08-18T03:03:52.555Z,9.747253
2022-08-18T03:04:52.544Z,9.747395
2022-08-18T03:05:52.567Z,9.747372
2022-08-18T03:06:52.527Z,9.747248
2022-08-18T03:07:52.713Z,9.747360
2022-08-18T03:08:52.522Z,9.747452
2022-08-18T03:09:52.509Z,9.747428
2022-08-18T03:10:52.499Z,9.747523
2022-08-18T03:11:52.493Z,9.747480
2022-08-18T03:12:52.514Z,9.747443
2022-08-18T03:13:52.474Z,9.747414
2022-08-18T03:14:52.471Z,9.747374
2022-08-18T03:15:56.668Z,9.747349
2022-08-18T03:16:55.103Z,9.747306
2022-08-18T03:17:52.564Z,9.747314
2022-08-18T03:18:52.436Z,9.747410
2022-08-18T03:19:52.800Z,9.747461
2022-08-18T03:20:52.421Z,9.747392
2022-08-18T03:21:52.416Z,9.747374
2022-08-18T03:22:52.439Z,9.747430
2022-08-18T03:24:00.669Z,9.747303
2022-08-18T03:24:53.397Z,9.747301
2022-08-18T03:25:52.385Z,9.747325
2022-08-18T03:26:52.395Z,9.747397
2022-08-18T03:27:52.618Z,9.747361
2022-08-18T03:28:52.443Z,9.747360
2022-08-18T03:29:52.359Z,9.747324
2022-08-18T03:30:52.357Z,9.747424
2022-08-18T03:31:52.347Z,9.747359
2022-08-18T03:32:52.336Z,9.747401
2022-08-18T03:33:52.374Z,9.747440
2022-08-18T03:34:52.311Z,9.747437
2022-08-18T03:35:52.344Z,9.747387
2022-08-18T03:36:52.313Z,9.747449
2022-08-18T03:37:52.548Z,9.747394
2022-08-18T03:38:52.561Z,9.747413
2022-08-18T03:39:52.313Z,9.747414
2022-08-18T03:40:52.277Z,9.747434
2022-08-18T03:41:58.768Z,9.747348
2022-08-18T03:42:53.257Z,9.747336
2022-08-18T03:43:52.302Z,9.747366
2022-08-18T03:44:52.239Z,9.747369
2022-08-18T03:45:52.232Z,9.747409
2022-08-18T03:46:52.231Z,9.747403
2022-08-18T03:47:52.430Z,9.747373
2022-08-18T03:48:52.234Z,9.747402
2022-08-18T03:49:52.201Z,9.747419
2022-08-18T03:50:52.191Z,9.747417
2022-08-18T03:51:52.189Z,9.747421
2022-08-18T03:52:52.177Z,9.747423
2022-08-18T03:53:52.203Z,9.747511
2022-08-18T03:54:52.166Z,9.747466
2022-08-18T03:55:52.160Z,9.747439
2022-08-18T03:56:52.160Z,9.747399
2022-08-18T03:57:52.323Z,9.747378
2022-08-18T03:58:52.164Z,9.747430
2022-08-18T03:59:52.121Z,9.747370
2022-08-18T04:00:52.176Z,9.747458
2022-08-18T04:01:53.185Z,9.747390
2022-08-18T04:02:52.105Z,9.747367
2022-08-18T04:03:52.136Z,9.747402
2022-08-18T04:04:52.083Z,9.747485
2022-08-18T04:05:53.081Z,9.747331
2022-08-18T04:06:52.084Z,9.747359
2022-08-18T04:07:52.232Z,9.747426
2022-08-18T04:08:52.082Z,9.747391
2022-08-18T04:09:52.050Z,9.747343
2022-08-18T04:10:52.039Z,9.747435
2022-08-18T04:11:52.033Z,9.747406
2022-08-18T04:12:52.037Z,9.747369
2022-08-18T04:13:52.082Z,9.747397
2022-08-18T04:14:52.014Z,9.747443
2022-08-18T04:15:52.005Z,9.747430
2022-08-18T04:16:52.009Z,9.747427
2022-08-18T04:17:56.179Z,9.747369
2022-08-18T04:18:53.013Z,9.747389
2022-08-18T04:19:51.977Z,9.747451
2022-08-18T04:20:56.280Z,9.747420
2022-08-18T04:21:52.960Z,9.747335
2022-08-18T04:22:51.954Z,9.747307
2022-08-18T04:23:51.989Z,9.747304
2022-08-18T04:24:51.955Z,9.747366
2022-08-18T04:25:51.926Z,9.747456
2022-08-18T04:26:51.917Z,9.747497
2022-08-18T04:27:52.064Z,9.747363
2022-08-18T04:28:51.934Z,9.747317
2022-08-18T04:29:51.893Z,9.747388
2022-08-18T04:30:51.888Z,9.747456
2022-08-18T04:31:51.919Z,9.747436
2022-08-18T04:32:51.884Z,9.747426
2022-08-18T04:33:51.912Z,9.747423
2022-08-18T04:34:51.859Z,9.747375
2022-08-18T04:35:51.843Z,9.747369
2022-08-18T04:36:51.853Z,9.747448
2022-08-18T04:37:52.228Z,9.747404
2022-08-18T04:38:51.856Z,9.747415
2022-08-18T04:39:51.837Z,9.747447
2022-08-18T04:40:51.805Z,9.747383
2022-08-18T04:41:51.801Z,9.747375
2022-08-18T04:42:51.791Z,9.747399
2022-08-18T04:43:51.809Z,9.747344
2022-08-18T04:44:51.774Z,9.747407
2022-08-18T04:45:51.790Z,9.747429
2022-08-18T04:46:51.767Z,9.747473
2022-08-18T04:47:51.868Z,9.747493
2022-08-18T04:48:51.771Z,9.747469
2022-08-18T04:49:51.736Z,9.747462
2022-08-18T04:50:51.728Z,9.747411
2022-08-18T04:52:39.072Z,9.747390
2022-08-18T04:52:52.711Z,9.747542
2022-08-18T04:53:51.737Z,9.747508
2022-08-18T04:54:51.700Z,9.747446
2022-08-18T04:55:51.691Z,9.747354
2022-08-18T04:56:51.687Z,9.747319
2022-08-18T04:57:51.848Z,9.747418
2022-08-18T04:58:51.694Z,9.747316
2022-08-18T04:59:51.664Z,9.747334
2022-08-18T05:00:51.694Z,9.747379
2022-08-18T05:01:51.663Z,9.747312
2022-08-18T05:02:51.632Z,9.747396
2022-08-18T05:03:51.676Z,9.747351
2022-08-18T05:04:51.621Z,9.747357
2022-08-18T05:05:51.640Z,9.747429
2022-08-18T05:06:51.597Z,9.747380
2022-08-18T05:07:51.711Z,9.747439
2022-08-18T05:08:51.624Z,9.747464
2022-08-18T05:09:51.578Z,9.747390
2022-08-18T05:10:51.573Z,9.747437
2022-08-18T05:11:51.568Z,9.747431
2022-08-18T05:12:51.562Z,9.747539
2022-08-18T05:13:51.548Z,9.747478
2022-08-18T05:14:51.576Z,9.747444
2022-08-18T05:16:09.510Z,9.747516
2022-08-18T05:16:53.533Z,9.747504
2022-08-18T05:17:51.608Z,9.747466
2022-08-18T05:18:51.546Z,9.747443
2022-08-18T05:19:51.509Z,9.747421
2022-08-18T05:20:51.506Z,9.747425
2022-08-18T05:21:51.753Z,9.747470
2022-08-18T05:22:51.481Z,9.747461
2022-08-18T05:23:51.513Z,9.747478
2022-08-18T05:24:51.466Z,9.747560
2022-08-18T05:25:51.452Z,9.747490
2022-08-18T05:26:51.456Z,9.747419
2022-08-18T05:27:51.557Z,9.747427
2022-08-18T05:28:55.706Z,9.747448
2022-08-18T05:29:52.417Z,9.747437
2022-08-18T05:30:52.418Z,9.747437
2022-08-18T05:31:51.411Z,9.747482
2022-08-18T05:32:51.418Z,9.747416
2022-08-18T05:33:51.429Z,9.747428
2022-08-18T05:34:51.384Z,9.747332
2022-08-18T05:35:51.398Z,9.747512
2022-08-18T05:36:51.383Z,9.747394
2022-08-18T05:37:51.566Z,9.747360
2022-08-18T05:38:51.394Z,9.747451
2022-08-18T05:39:51.421Z,9.747386
2022-08-18T05:40:51.331Z,9.747442
2022-08-18T05:41:51.331Z,9.747460
2022-08-18T05:42:51.322Z,9.747469
2022-08-18T05:43:52.560Z,9.747406
2022-08-18T05:44:52.304Z,9.747373
2022-08-18T05:45:51.304Z,9.747473
2022-08-18T05:46:51.295Z,9.747360
2022-08-18T05:47:51.413Z,9.747358
2022-08-18T05:48:51.301Z,9.747359
2022-08-18T05:49:51.262Z,9.747427
2022-08-18T05:50:51.251Z,9.747409
2022-08-18T05:51:51.249Z,9.747398
2022-08-18T05:52:51.251Z,9.747420
2022-08-18T05:53:51.255Z,9.747376
2022-08-18T05:54:51.220Z,9.747343
2022-08-18T05:55:51.217Z,9.747358
2022-08-18T05:56:51.233Z,9.747321
2022-08-18T05:57:51.327Z,9.747322
2022-08-18T05:58:51.236Z,9.747325
2022-08-18T05:59:51.187Z,9.747335
2022-08-18T06:00:51.176Z,9.747354
2022-08-18T06:01:51.173Z,9.747327
2022-08-18T06:02:51.189Z,9.747284
2022-08-18T06:03:51.182Z,9.747330
2022-08-18T06:04:51.148Z,9.747363
2022-08-18T06:05:51.141Z,9.747409
2022-08-18T06:06:51.143Z,9.747404
2022-08-18T06:07:51.287Z,9.747363
2022-08-18T06:08:51.146Z,9.747323
2022-08-18T06:09:51.111Z,9.747366
2022-08-18T06:10:51.097Z,9.747351
2022-08-18T06:11:51.091Z,9.747276
2022-08-18T06:12:51.085Z,9.747344
2022-08-18T06:13:57.770Z,9.747403
2022-08-18T06:14:52.069Z,9.747375
2022-08-18T06:15:51.059Z,9.747476
2022-08-18T06:16:51.048Z,9.747385
2022-08-18T06:17:51.239Z,9.747417
2022-08-18T06:18:51.075Z,9.747439
2022-08-18T06:19:51.031Z,9.747530
2022-08-18T06:20:51.017Z,9.747454
2022-08-18T06:21:51.015Z,9.747506
2022-08-18T06:22:53.231Z,9.747538
2022-08-18T06:23:51.032Z,9.747475
2022-08-18T06:24:50.988Z,9.747449
2022-08-18T06:25:50.982Z,9.747405
2022-08-18T06:26:50.980Z,9.747418
2022-08-18T06:27:51.187Z,9.747466
2022-08-18T06:28:51.010Z,9.747463
2022-08-18T06:29:50.952Z,9.747484
2022-08-18T06:30:50.941Z,9.747410
2022-08-18T06:31:50.950Z,9.747382
2022-08-18T06:32:50.925Z,9.747355
2022-08-18T06:33:50.947Z,9.747300
2022-08-18T06:34:50.914Z,9.747349
2022-08-18T06:35:51.972Z,9.747403
2022-08-18T06:36:50.899Z,9.747450
2022-08-18T06:37:51.049Z,9.747434
2022-08-18T06:38:50.875Z,9.747416
2022-08-18T06:39:50.966Z,9.747457
2022-08-18T06:40:50.858Z,9.747455
2022-08-18T06:41:50.853Z,9.747443
2022-08-18T06:42:50.847Z,9.747379
2022-08-18T06:43:50.839Z,9.747374
2022-08-18T06:44:50.847Z,9.747453
2022-08-18T06:45:50.820Z,9.747384
2022-08-18T06:46:53.532Z,9.747389
2022-08-18T06:47:51.106Z,9.747383
2022-08-18T06:48:50.818Z,9.747355
2022-08-18T06:49:50.818Z,9.747426
2022-08-18T06:50:50.784Z,9.747384
2022-08-18T06:51:50.771Z,9.747383
2022-08-18T06:52:50.762Z,9.747461
2022-08-18T06:53:50.757Z,9.747456
2022-08-18T06:54:51.562Z,9.747467
2022-08-18T06:55:51.738Z,9.747489
2022-08-18T06:56:50.733Z,9.747459
2022-08-18T06:57:50.826Z,9.747459
2022-08-18T06:58:53.213Z,9.747467
2022-08-18T06:59:51.738Z,9.747466
2022-08-18T07:00:50.751Z,9.747552
2022-08-18T07:01:50.698Z,9.747444
2022-08-18T07:02:50.687Z,9.747510
2022-08-18T07:03:50.678Z,9.747561
2022-08-18T07:04:50.695Z,9.747537
2022-08-18T07:05:50.664Z,9.747512
2022-08-18T07:06:50.654Z,9.747497
2022-08-18T07:07:50.835Z,9.747504
2022-08-18T07:08:50.639Z,9.747576
2022-08-18T07:09:50.661Z,9.747541
2022-08-18T07:10:50.622Z,9.747459
2022-08-18T07:11:50.612Z,9.747539
2022-08-18T07:12:50.607Z,9.747481
2022-08-18T07:14:03.705Z,9.747550
2022-08-18T07:14:52.648Z,9.747575
2022-08-18T07:15:50.584Z,9.747694
2022-08-18T07:16:59.201Z,9.747681
2022-08-18T07:17:52.646Z,9.747731
2022-08-18T07:18:50.585Z,9.747618
2022-08-18T07:19:50.595Z,9.747652
2022-08-18T07:20:50.548Z,9.747630
2022-08-18T07:21:50.542Z,9.747532
2022-08-18T07:22:50.532Z,9.747354
2022-08-18T07:24:14.134Z,9.747501
2022-08-18T07:24:52.565Z,9.747440
2022-08-18T07:25:50.512Z,9.747784
2022-08-18T07:26:50.503Z,9.747565
2022-08-18T07:27:50.742Z,9.747708
2022-08-18T07:28:50.499Z,9.747516
2022-08-18T07:29:50.534Z,9.747541
2022-08-18T07:31:13.634Z,9.747349
2022-08-18T07:31:52.460Z,9.747344
2022-08-18T07:32:50.453Z,9.747294
2022-08-18T07:33:50.448Z,9.747378
2022-08-18T07:34:53.117Z,9.747551
2022-08-18T07:35:50.436Z,9.747561
2022-08-18T07:36:50.458Z,9.747332
2022-08-18T07:37:50.482Z,9.747431
2022-08-18T07:38:50.407Z,9.747327
2022-08-18T07:39:50.513Z,9.747231
2022-08-18T07:40:50.392Z,9.747235
2022-08-18T07:41:50.384Z,9.747373
2022-08-18T07:43:00.514Z,9.747394
2022-08-18T07:43:51.368Z,9.747384
2022-08-18T07:45:24.236Z,9.747400
2022-08-18T07:45:50.352Z,9.747359
2022-08-18T07:46:50.343Z,9.747316
2022-08-18T07:47:50.340Z,9.747371
2022-08-18T07:48:50.327Z,9.747355
2022-08-18T07:50:15.818Z,9.747343
2022-08-18T07:51:00.148Z,9.747282
2022-08-18T07:51:53.066Z,9.747303
2022-08-18T07:52:50.284Z,9.747337
2022-08-18T07:53:54.745Z,9.747348
2022-08-18T07:54:51.498Z,9.747318
2022-08-18T07:55:50.275Z,9.747432
2022-08-18T07:56:50.266Z,9.747365
2022-08-18T07:57:50.258Z,9.747377
2022-08-18T07:58:50.258Z,9.747424
2022-08-18T07:59:50.271Z,9.747381
2022-08-18T08:01:05.497Z,9.747424
2022-08-18T08:01:52.302Z,9.747268
2022-08-18T08:02:54.809Z,9.747422
2022-08-18T08:03:51.221Z,9.747354
2022-08-18T08:04:50.235Z,9.747449
2022-08-18T08:05:50.204Z,9.747420
2022-08-18T08:07:13.011Z,9.747461
2022-08-18T08:07:52.436Z,9.747532
2022-08-18T08:08:50.183Z,9.747582
2022-08-18T08:09:52.034Z,9.747192
2022-08-18T08:10:51.164Z,9.747332
2022-08-18T08:11:50.156Z,9.747513
2022-08-18T08:12:50.154Z,9.747338
2022-08-18T08:13:55.584Z,9.747278
2022-08-18T08:14:52.167Z,9.747384
2022-08-18T08:15:50.129Z,9.747404
2022-08-18T08:16:50.124Z,9.747331
2022-08-18T08:17:50.144Z,9.747347
2022-08-18T08:18:50.106Z,9.747377
2022-08-18T08:20:00.583Z,9.747465
2022-08-18T08:20:52.114Z,9.747396
2022-08-18T08:21:52.656Z,9.747338
2022-08-18T08:22:50.092Z,9.747301
2022-08-18T08:23:50.068Z,9.747407
2022-08-18T08:24:50.059Z,9.747291
2022-08-18T08:25:50.091Z,9.747390
2022-08-18T08:26:50.045Z,9.747436
2022-08-18T08:27:50.040Z,9.747299
2022-08-18T08:28:55.118Z,9.747311
2022-08-18T08:29:52.067Z,9.747390
2022-08-18T08:30:50.034Z,9.747252
2022-08-18T08:31:50.026Z,9.747347
2022-08-18T08:32:50.027Z,9.747349
2022-08-18T08:33:49.990Z,9.747349
2022-08-18T08:34:49.984Z,9.747291
2022-08-18T08:35:50.863Z,9.747366
2022-08-18T08:36:50.968Z,9.747416
2022-08-18T08:37:50.048Z,9.747349
2022-08-18T08:38:49.949Z,9.747331
2022-08-18T08:39:50.022Z,9.747292
2022-08-18T08:40:49.965Z,9.747426
2022-08-18T08:41:49.936Z,9.747458
2022-08-18T08:42:49.912Z,9.747407
2022-08-18T08:43:49.918Z,9.747457
2022-08-18T08:44:59.239Z,9.747460
2022-08-18T08:45:52.083Z,9.747396
2022-08-18T08:46:49.884Z,9.747405
2022-08-18T08:47:49.884Z,9.747541
2022-08-18T08:48:49.869Z,9.747498
2022-08-18T08:49:59.087Z,9.747413
2022-08-18T08:50:50.877Z,9.747462
2022-08-18T08:51:49.848Z,9.747444
2022-08-18T08:52:49.836Z,9.747423
2022-08-18T08:53:49.836Z,9.747402
2022-08-18T08:54:49.824Z,9.747311
2022-08-18T08:55:49.991Z,9.747387
2022-08-18T08:56:49.812Z,9.747413
2022-08-18T08:57:49.810Z,9.747424
2022-08-18T08:58:49.796Z,9.747269
2022-08-18T08:59:49.782Z,9.747278
2022-08-18T09:00:51.679Z,9.747368
2022-08-18T09:01:49.798Z,9.747256
2022-08-18T09:02:49.818Z,9.747320
2022-08-18T09:03:49.753Z,9.747340
2022-08-18T09:05:07.653Z,9.747381
2022-08-18T09:05:56.159Z,9.747138
2022-08-18T09:06:51.726Z,9.747135
2022-08-18T09:07:49.719Z,9.747298
2022-08-18T09:08:49.713Z,9.747281
2022-08-18T09:09:49.707Z,9.747380
2022-08-18T09:10:49.700Z,9.747299
2022-08-18T09:11:49.717Z,9.747211
2022-08-18T09:12:49.700Z,9.747202
2022-08-18T09:13:49.672Z,9.747324
2022-08-18T09:14:49.666Z,9.747354
2022-08-18T09:15:49.655Z,9.747392
2022-08-18T09:16:49.677Z,9.747250
2022-08-18T09:17:49.642Z,9.747363
2022-08-18T09:18:49.630Z,9.747355
2022-08-18T09:19:50.621Z,9.747415
2022-08-18T09:20:49.749Z,9.747375
2022-08-18T09:21:49.615Z,9.747352
2022-08-18T09:22:49.608Z,9.747440
2022-08-18T09:23:49.598Z,9.747441
2022-08-18T09:24:51.022Z,9.747352
2022-08-18T09:25:49.593Z,9.747366
2022-08-18T09:26:49.599Z,9.747444
2022-08-18T09:28:10.066Z,9.747349
2022-08-18T09:28:51.561Z,9.747391
2022-08-18T09:29:49.549Z,9.747297
2022-08-18T09:30:51.395Z,9.747477
2022-08-18T09:31:49.560Z,9.747464
2022-08-18T09:32:49.563Z,9.747432
2022-08-18T09:33:49.531Z,9.747308
2022-08-18T09:34:49.510Z,9.747387
2022-08-18T09:35:54.529Z,9.747375
2022-08-18T09:36:50.497Z,9.747340
2022-08-18T09:37:50.310Z,9.747529
2022-08-18T09:38:49.482Z,9.747333
2022-08-18T09:39:54.419Z,9.747487
2022-08-18T09:41:02.683Z,9.747458
2022-08-18T09:41:51.455Z,9.747468
2022-08-18T09:42:49.897Z,9.747431
2022-08-18T09:43:49.438Z,9.747510
2022-08-18T09:44:49.429Z,9.747562
2022-08-18T09:45:49.442Z,9.747634
2022-08-18T09:46:49.410Z,9.747353
2022-08-18T09:47:49.408Z,9.747366
2022-08-18T09:48:49.393Z,9.747360
2022-08-18T09:49:51.446Z,9.747324
2022-08-18T09:50:49.407Z,9.747517
2022-08-18T09:51:49.372Z,9.747490
2022-08-18T09:52:49.384Z,9.747481
2022-08-18T09:53:49.358Z,9.747484
2022-08-18T09:54:49.345Z,9.747442
2022-08-18T09:55:51.974Z,9.747409
2022-08-18T09:56:54.099Z,9.747500
2022-08-18T09:57:51.326Z,9.747482
2022-08-18T09:58:50.054Z,9.747408
2022-08-18T09:59:49.311Z,9.747445
2022-08-18T10:00:49.326Z,9.747497
2022-08-18T10:01:52.629Z,9.747366
2022-08-18T10:03:50.287Z,9.747516
2022-08-18T10:04:49.301Z,9.747474
2022-08-18T10:05:49.319Z,9.747418
2022-08-18T10:06:49.262Z,9.747450
2022-08-18T10:07:50.129Z,9.747398
2022-08-18T10:08:49.240Z,9.747445
2022-08-18T10:09:49.238Z,9.747431
2022-08-18T10:11:50.987Z,9.747397
2022-08-18T10:12:49.216Z,9.747407
2022-08-18T10:14:51.187Z,9.747391
2022-08-18T10:15:49.294Z,9.747419
2022-08-18T10:17:15.986Z,9.747427
2022-08-18T10:17:51.170Z,9.747475
2022-08-18T10:18:49.160Z,9.747359
2022-08-18T10:19:49.156Z,9.747407
2022-08-18T10:20:49.184Z,9.747496
2022-08-18T10:21:49.141Z,9.747448
2022-08-18T10:22:49.191Z,9.747408
2022-08-18T10:23:54.572Z,9.747396
2022-08-18T10:24:51.118Z,9.747375
2022-08-18T10:25:49.191Z,9.747397
2022-08-18T10:27:50.129Z,9.747345
2022-08-18T10:28:49.089Z,9.747382
2022-08-18T10:29:49.078Z,9.747351
2022-08-18T10:30:57.393Z,9.747297
2022-08-18T10:31:50.079Z,9.747374
2022-08-18T10:32:52.253Z,9.747461
2022-08-18T10:33:50.054Z,9.747482
2022-08-18T10:34:52.177Z,9.747355
2022-08-18T10:35:49.151Z,9.747426
2022-08-18T10:36:49.027Z,9.747447
2022-08-18T10:37:49.221Z,9.747426
2022-08-18T10:38:49.446Z,9.747383
2022-08-18T10:39:50.137Z,9.747400
2022-08-18T10:40:49.028Z,9.747447
2022-08-18T10:41:48.986Z,9.747400
2022-08-18T10:42:49.036Z,9.747452
2022-08-18T10:43:57.628Z,9.747366
2022-08-18T10:44:49.962Z,9.747358
2022-08-18T10:46:20.733Z,9.747268
2022-08-18T10:46:50.951Z,9.747340
2022-08-18T10:47:49.028Z,9.747519
2022-08-18T10:48:48.932Z,9.747511
2022-08-18T10:49:48.922Z,9.747451
2022-08-18T10:50:48.919Z,9.747459
2022-08-18T10:52:54.460Z,9.747377
2022-08-18T10:53:51.049Z,9.747380
2022-08-18T10:54:50.933Z,9.747552
2022-08-18T10:55:49.985Z,9.747517
2022-08-18T10:56:49.906Z,9.747462
2022-08-18T10:57:48.865Z,9.747433
2022-08-18T10:58:48.859Z,9.747305
2022-08-18T11:00:50.880Z,9.747372
2022-08-18T11:01:48.833Z,9.747460
2022-08-18T11:02:48.905Z,9.747409
2022-08-18T11:03:52.072Z,9.747411
2022-08-18T11:05:49.843Z,9.747338
2022-08-18T11:06:48.792Z,9.747445
2022-08-18T11:07:49.046Z,9.747427
2022-08-18T11:08:54.699Z,9.747459
2022-08-18T11:09:57.093Z,9.747400
2022-08-18T11:11:27.475Z,9.747486
2022-08-18T11:11:53.411Z,9.747391
2022-08-18T11:12:50.659Z,9.747403
2022-08-18T11:13:48.792Z,9.747262
2022-08-18T11:14:50.123Z,9.747208
2022-08-18T11:15:48.748Z,9.747336
2022-08-18T11:16:48.708Z,9.747381
2022-08-18T11:17:48.704Z,9.747314
2022-08-18T11:18:49.078Z,9.747322
2022-08-18T11:20:49.711Z,9.747447
2022-08-18T11:21:51.741Z,9.747344
2022-08-18T11:22:48.856Z,9.747357
2022-08-18T11:23:48.658Z,9.747335
2022-08-18T11:24:48.652Z,9.747467
2022-08-18T11:25:49.640Z,9.747538
2022-08-18T11:26:52.378Z,9.747383
2022-08-18T11:27:48.640Z,9.747461
2022-08-18T11:28:48.623Z,9.747609
2022-08-18T11:29:48.614Z,9.747506
2022-08-18T11:30:48.671Z,9.747480
2022-08-18T11:31:52.921Z,9.747546
2022-08-18T11:32:51.581Z,9.747418
2022-08-18T11:33:51.396Z,9.747534
2022-08-18T11:34:53.006Z,9.747220
2022-08-18T11:35:48.601Z,9.747182
2022-08-18T11:36:49.917Z,9.747491
2022-08-18T11:37:51.565Z,9.747477
2022-08-18T11:38:48.546Z,9.747453
2022-08-18T11:39:48.650Z,9.747401
2022-08-18T11:41:50.662Z,9.747185
2022-08-18T11:42:48.650Z,9.747219
2022-08-18T11:43:50.452Z,9.747316
2022-08-18T11:44:48.507Z,9.747269
2022-08-18T11:45:48.532Z,9.747356
2022-08-18T11:46:51.983Z,9.747229
2022-08-18T11:47:48.483Z,9.747242
2022-08-18T11:48:51.498Z,9.747368
2022-08-18T11:49:48.469Z,9.747451
2022-08-18T11:51:49.446Z,9.747471
2022-08-18T11:52:48.526Z,9.747487
2022-08-18T11:53:55.523Z,9.747495
2022-08-18T11:54:50.859Z,9.747260